Terminal Aerodrome Forecast
Issued by NWS Sterling, VA

Current Version | Previous Version | Text Only | Print | Product List | Glossary Off
Versions: 1 2 3 4 5 6 7 8 9 10 11 12 13 14 15 16 17 18 19 20 21 22 23 24 25 26 27

000
FTUS41 KLWX 202340
TAFDCA
TAF
KDCA 202340Z 2100/2206 19009KT P6SM FEW070 SCT250
     FM210800 20007KT 6SM BR BKN015
     FM211000 20007KT 5SM -DZ BR BKN008
     FM211400 21009KT 6SM -DZ BKN015
     FM211500 21012G20KT P6SM SCT035 BKN070
     FM220200 26007KT P6SM SCT040 BKN130
     FM220400 36008KT P6SM SCT025 BKN040=

USA.gov is the U.S. government's official web portal to all federal, state and local government web resources and services.